Time;durP1;ratioP1;P1;durP2;ratioP2;P2;SDS_P1;SDS_P2;PMS_P1;PMS_P2;Temp;Humidity;BMP_temperature;BMP_pressure;BME280_temperature;BME280_humidity;BME280_pressure;Samples;Min_cycle;Max_cycle;Signal;HPM_P1;HPM_P2
2023/03/05 00:01:23;;;;;;;1.85;1.73;;;;;;;;;;5070921;28;20100;-71
2023/03/05 00:03:48;;;;;;;1.60;1.58;;;;;;;;;;5053401;28;20043;-70
2023/03/05 00:06:16;;;;;;;2.15;2.05;;;;;;;;;;5052908;28;20048;-72
2023/03/05 00:08:42;;;;;;;4.07;3.78;;;;;;;;;;5070830;28;20115;-72
2023/03/05 00:11:09;;;;;;;2.35;2.10;;;;;;;;;;5052872;28;20051;-71
2023/03/05 00:13:35;;;;;;;2.45;2.22;;;;;;;;;;5053028;28;20404;-72
2023/03/05 00:16:02;;;;;;;2.30;2.00;;;;;;;;;;5036113;28;20029;-71
2023/03/05 00:18:28;;;;;;;3.13;2.83;;;;;;;;;;5035940;28;20518;-72
2023/03/05 00:20:54;;;;;;;2.35;2.25;;;;;;;;;;5070247;28;20174;-72
2023/03/05 00:23:20;;;;;;;5.00;4.50;;;;;;;;;;5070153;28;20135;-72
2023/03/05 00:25:46;;;;;;;4.55;4.25;;;;;;;;;;5052369;28;20135;-71
2023/03/05 00:28:12;;;;;;;6.75;6.15;;;;;;;;;;5052291;28;20036;-72
2023/03/05 00:30:38;;;;;;;4.15;3.85;;;;;;;;;;5070519;28;20040;-71
2023/03/05 00:33:04;;;;;;;8.00;7.50;;;;;;;;;;5052154;28;20421;-71
2023/03/05 00:35:30;;;;;;;11.40;9.25;;;;;;;;;;5070474;28;20040;-72
2023/03/05 00:37:56;;;;;;;5.00;4.70;;;;;;;;;;5068735;28;20059;-71
2023/03/05 00:40:22;;;;;;;4.55;4.15;;;;;;;;;;5051841;28;20072;-71
2023/03/05 00:42:49;;;;;;;3.50;3.30;;;;;;;;;;5070191;28;20484;-72
2023/03/05 00:45:14;;;;;;;2.55;2.45;;;;;;;;;;5069940;28;20094;-71
2023/03/05 00:47:41;;;;;;;3.92;3.55;;;;;;;;;;5069757;28;20042;-72
2023/03/05 00:50:07;;;;;;;7.20;6.60;;;;;;;;;;5051944;28;20032;-71
2023/03/05 00:52:34;;;;;;;4.65;4.30;;;;;;;;;;5051878;28;20126;-72
2023/03/05 00:55:00;;;;;;;1.90;1.80;;;;;;;;;;5069967;28;20078;-72
2023/03/05 00:57:26;;;;;;;4.68;4.38;;;;;;;;;;5070656;28;20107;-71
2023/03/05 00:59:52;;;;;;;2.70;2.60;;;;;;;;;;5053624;28;20522;-72
2023/03/05 01:02:18;;;;;;;3.78;3.50;;;;;;;;;;5070489;28;20150;-70
2023/03/05 01:04:46;;;;;;;6.47;3.67;;;;;;;;;;5053762;28;20056;-71
2023/03/05 01:07:12;;;;;;;2.25;2.05;;;;;;;;;;5051607;28;20686;-71
2023/03/05 01:09:38;;;;;;;2.08;1.98;;;;;;;;;;5068504;28;20043;-71
2023/03/05 01:12:04;;;;;;;3.25;3.05;;;;;;;;;;5034042;28;20060;-71
2023/03/05 01:14:31;;;;;;;2.60;2.50;;;;;;;;;;5051639;28;20039;-71
2023/03/05 01:16:57;;;;;;;2.85;2.42;;;;;;;;;;5069398;28;20037;-71
2023/03/05 01:19:23;;;;;;;1.70;1.65;;;;;;;;;;5051233;28;20035;-71
2023/03/05 01:21:49;;;;;;;2.10;2.00;;;;;;;;;;5069488;28;20536;-72
2023/03/05 01:24:15;;;;;;;1.98;1.88;;;;;;;;;;5069071;28;20123;-71
2023/03/05 01:26:41;;;;;;;2.45;2.33;;;;;;;;;;5051293;28;20067;-72
2023/03/05 01:29:07;;;;;;;1.52;1.42;;;;;;;;;;5039987;28;20533;-72
2023/03/05 01:31:33;;;;;;;2.35;2.15;;;;;;;;;;5048968;28;20083;-71
2023/03/05 01:33:59;;;;;;;2.72;2.53;;;;;;;;;;5051340;28;20580;-72
2023/03/05 01:36:25;;;;;;;2.85;2.28;;;;;;;;;;5068880;28;20047;-70
2023/03/05 01:38:51;;;;;;;2.30;2.20;;;;;;;;;;5031308;28;20036;-72
2023/03/05 01:41:17;;;;;;;2.03;1.92;;;;;;;;;;5066660;28;20090;-72
2023/03/05 01:43:44;;;;;;;1.83;1.73;;;;;;;;;;5069121;28;20028;-71
2023/03/05 01:46:24;;;;;;;1.48;1.48;;;;;;;;;;5068653;28;20574;-71
2023/03/05 01:48:51;;;;;;;1.63;1.60;;;;;;;;;;5068584;28;20111;-71
2023/03/05 01:51:17;;;;;;;1.30;1.15;;;;;;;;;;5068656;28;20590;-72
2023/03/05 01:53:43;;;;;;;2.33;1.88;;;;;;;;;;5068660;28;20039;-71
2023/03/05 01:56:10;;;;;;;1.23;1.23;;;;;;;;;;5068769;28;20215;-72
2023/03/05 01:58:38;;;;;;;1.30;1.30;;;;;;;;;;5034442;28;20032;-71
2023/03/05 02:01:05;;;;;;;1.40;1.40;;;;;;;;;;5051040;28;20028;-72
2023/03/05 02:03:31;;;;;;;1.50;1.40;;;;;;;;;;5050648;28;20124;-71
2023/03/05 02:05:57;;;;;;;1.38;1.38;;;;;;;;;;5068652;28;20052;-70
2023/03/05 02:08:23;;;;;;;1.33;1.30;;;;;;;;;;5050475;28;20040;-71
2023/03/05 02:10:50;;;;;;;1.40;1.23;;;;;;;;;;5050980;28;20036;-71
2023/03/05 02:13:22;;;;;;;1.55;1.48;;;;;;;;;;5068309;28;20128;-72
2023/03/05 02:15:48;;;;;;;1.80;1.70;;;;;;;;;;5068763;28;20032;-72
2023/03/05 02:18:14;;;;;;;4.22;1.63;;;;;;;;;;5050634;28;20036;-72
2023/03/05 02:20:43;;;;;;;1.27;1.27;;;;;;;;;;5068764;28;20123;-71
2023/03/05 02:23:10;;;;;;;1.50;1.50;;;;;;;;;;5049987;28;20028;-72
2023/03/05 02:25:36;;;;;;;2.05;1.52;;;;;;;;;;5050553;28;20196;-71
2023/03/05 02:28:12;;;;;;;1.50;1.40;;;;;;;;;;5067524;28;20028;-70
2023/03/05 02:30:38;;;;;;;1.95;1.85;;;;;;;;;;5033972;28;20043;-71
2023/03/05 02:33:04;;;;;;;1.60;1.42;;;;;;;;;;5066558;28;20147;-71
2023/03/05 02:35:31;;;;;;;1.45;1.40;;;;;;;;;;5048466;28;20040;-71
2023/03/05 02:37:57;;;;;;;1.60;1.50;;;;;;;;;;5066414;28;20044;-70
2023/03/05 02:40:23;;;;;;;1.90;1.70;;;;;;;;;;5031946;28;20052;-70
2023/03/05 02:42:49;;;;;;;1.70;1.60;;;;;;;;;;5048596;28;20032;-70
2023/03/05 02:45:16;;;;;;;1.13;1.13;;;;;;;;;;5066049;28;20546;-71
2023/03/05 02:47:41;;;;;;;1.52;1.42;;;;;;;;;;5050074;28;20032;-72
2023/03/05 02:50:09;;;;;;;1.67;1.58;;;;;;;;;;5050857;28;20041;-70
2023/03/05 02:52:36;;;;;;;1.38;1.38;;;;;;;;;;5051439;28;20066;-72
2023/03/05 02:55:04;;;;;;;1.63;1.52;;;;;;;;;;5051228;28;20043;-70
2023/03/05 02:57:30;;;;;;;1.60;1.50;;;;;;;;;;5049632;28;20126;-71
2023/03/05 02:59:56;;;;;;;1.50;1.40;;;;;;;;;;5068553;28;20037;-71
2023/03/05 03:02:22;;;;;;;3.85;1.55;;;;;;;;;;5037632;28;20147;-71
2023/03/05 03:04:48;;;;;;;1.55;1.45;;;;;;;;;;5054367;28;20037;-70
2023/03/05 03:07:14;;;;;;;1.70;1.60;;;;;;;;;;5072081;28;20500;-72
2023/03/05 03:09:41;;;;;;;1.45;1.45;;;;;;;;;;5054579;28;20031;-70
2023/03/05 03:12:07;;;;;;;1.50;1.50;;;;;;;;;;5055600;28;20052;-71
2023/03/05 03:14:38;;;;;;;1.52;1.42;;;;;;;;;;5073976;28;20111;-70
2023/03/05 03:17:05;;;;;;;1.52;1.45;;;;;;;;;;5056102;28;20032;-71
2023/03/05 03:19:31;;;;;;;1.77;1.48;;;;;;;;;;5074499;28;20046;-72
2023/03/05 03:21:57;;;;;;;2.22;2.03;;;;;;;;;;5075897;28;20045;-72
2023/03/05 03:24:23;;;;;;;1.80;1.70;;;;;;;;;;5074714;28;20042;-72
2023/03/05 03:26:49;;;;;;;1.98;1.73;;;;;;;;;;5072571;28;20127;-72
2023/03/05 03:29:16;;;;;;;1.95;1.67;;;;;;;;;;5071445;28;20040;-73
2023/03/05 03:31:44;;;;;;;1.70;1.60;;;;;;;;;;5071537;28;20142;-71
2023/03/05 03:34:11;;;;;;;2.00;1.48;;;;;;;;;;5071421;28;20463;-72
2023/03/05 03:36:37;;;;;;;2.45;1.80;;;;;;;;;;5071657;28;20127;-71
2023/03/05 03:39:04;;;;;;;2.33;2.20;;;;;;;;;;5071399;28;20132;-71
2023/03/05 03:41:31;;;;;;;2.75;2.53;;;;;;;;;;5071230;28;20040;-71
2023/03/05 03:43:57;;;;;;;2.08;2.00;;;;;;;;;;5053582;28;20032;-72
2023/03/05 03:46:23;;;;;;;4.88;3.80;;;;;;;;;;5036886;28;20045;-71
2023/03/05 03:48:50;;;;;;;6.38;3.03;;;;;;;;;;5053428;28;20028;-72
2023/03/05 03:51:16;;;;;;;8.80;3.30;;;;;;;;;;5071272;28;20040;-72
2023/03/05 03:53:42;;;;;;;2.42;2.33;;;;;;;;;;5036648;28;20035;-72
2023/03/05 03:56:08;;;;;;;2.40;2.20;;;;;;;;;;5071336;28;20068;-72
2023/03/05 03:58:34;;;;;;;2.75;2.55;;;;;;;;;;5052994;28;20047;-72
2023/03/05 04:01:00;;;;;;;2.33;2.22;;;;;;;;;;5071218;28;20451;-70
2023/03/05 04:03:26;;;;;;;2.63;2.10;;;;;;;;;;5070982;28;20081;-71
2023/03/05 04:05:52;;;;;;;2.40;2.30;;;;;;;;;;5071129;28;20044;-71
2023/03/05 04:08:19;;;;;;;3.13;2.83;;;;;;;;;;5052680;28;20032;-71
2023/03/05 04:10:45;;;;;;;1.95;1.90;;;;;;;;;;5070885;28;20051;-72
2023/03/05 04:13:11;;;;;;;2.20;2.10;;;;;;;;;;5052782;28;20064;-72
2023/03/05 04:15:38;;;;;;;3.08;2.58;;;;;;;;;;5052812;28;20568;-71
2023/03/05 04:18:04;;;;;;;1.95;1.85;;;;;;;;;;5052987;28;20029;-72
2023/03/05 04:20:30;;;;;;;6.47;2.53;;;;;;;;;;5036066;28;20537;-72
2023/03/05 04:22:56;;;;;;;3.10;2.80;;;;;;;;;;5070901;28;20032;-71
2023/03/05 04:25:22;;;;;;;4.72;3.03;;;;;;;;;;5071852;28;20082;-74
2023/03/05 04:27:50;;;;;;;3.05;2.85;;;;;;;;;;5072355;28;20036;-71
2023/03/05 04:30:16;;;;;;;2.72;2.40;;;;;;;;;;5070794;28;20044;-71
2023/03/05 04:32:42;;;;;;;3.03;2.83;;;;;;;;;;5071497;28;20150;-71
2023/03/05 04:35:10;;;;;;;4.03;2.58;;;;;;;;;;5053193;28;20032;-71
2023/03/05 04:37:36;;;;;;;2.47;2.35;;;;;;;;;;5070391;28;20052;-72
2023/03/05 04:40:03;;;;;;;3.47;2.15;;;;;;;;;;5052535;28;20385;-71
2023/03/05 04:42:30;;;;;;;2.22;2.13;;;;;;;;;;5052362;28;20032;-72
2023/03/05 04:44:56;;;;;;;5.50;3.38;;;;;;;;;;5052723;28;20190;-72
2023/03/05 04:47:22;;;;;;;2.25;2.08;;;;;;;;;;5052144;28;20040;-71
2023/03/05 04:49:48;;;;;;;2.00;1.90;;;;;;;;;;5070240;28;20048;-72
2023/03/05 04:52:17;;;;;;;3.08;2.88;;;;;;;;;;5052696;28;20044;-72
2023/03/05 04:54:43;;;;;;;3.10;2.78;;;;;;;;;;5070268;28;20082;-71
2023/03/05 04:57:09;;;;;;;2.53;2.33;;;;;;;;;;5070133;28;20044;-71
2023/03/05 04:59:36;;;;;;;2.28;2.17;;;;;;;;;;5052076;28;20037;-72
2023/03/05 05:02:02;;;;;;;3.08;2.33;;;;;;;;;;5069866;28;20082;-72
2023/03/05 05:04:28;;;;;;;4.28;2.75;;;;;;;;;;5069829;28;20039;-72
2023/03/05 05:06:57;;;;;;;2.80;2.58;;;;;;;;;;5069983;28;20046;-72
2023/03/05 05:09:23;;;;;;;2.47;2.38;;;;;;;;;;5051708;28;20102;-72
2023/03/05 05:11:49;;;;;;;4.70;2.33;;;;;;;;;;5052013;28;20037;-71
2023/03/05 05:14:18;;;;;;;2.50;2.33;;;;;;;;;;5035323;28;20090;-71
2023/03/05 05:16:44;;;;;;;2.85;2.65;;;;;;;;;;5069983;28;20037;-71
2023/03/05 05:19:10;;;;;;;2.97;2.78;;;;;;;;;;5069668;28;20038;-71
2023/03/05 05:21:37;;;;;;;3.85;3.55;;;;;;;;;;5069358;28;20123;-72
2023/03/05 05:24:03;;;;;;;2.88;2.67;;;;;;;;;;5069000;28;20037;-71
2023/03/05 05:26:29;;;;;;;4.00;3.60;;;;;;;;;;5069219;28;20086;-71
2023/03/05 05:28:55;;;;;;;3.03;2.72;;;;;;;;;;5069605;28;20037;-71
2023/03/05 05:31:20;;;;;;;3.53;3.33;;;;;;;;;;5068953;28;20139;-71
2023/03/05 05:33:46;;;;;;;2.60;2.40;;;;;;;;;;5069570;28;20601;-71
2023/03/05 05:36:13;;;;;;;3.10;2.78;;;;;;;;;;5069370;28;20048;-70
2023/03/05 05:38:39;;;;;;;3.60;3.30;;;;;;;;;;5069005;28;20512;-71
2023/03/05 05:41:06;;;;;;;4.22;3.53;;;;;;;;;;5069200;28;20048;-72
2023/03/05 05:43:32;;;;;;;3.28;3.08;;;;;;;;;;5069287;28;20028;-72
2023/03/05 05:45:59;;;;;;;2.42;2.33;;;;;;;;;;5069117;28;20542;-73
2023/03/05 05:48:26;;;;;;;3.05;2.85;;;;;;;;;;5051573;28;20035;-84
2023/03/05 05:50:52;;;;;;;2.40;2.20;;;;;;;;;;5048438;28;20412;-79
2023/03/05 05:53:18;;;;;;;3.60;3.13;;;;;;;;;;5050417;28;20454;-77
2023/03/05 05:55:44;;;;;;;2.03;1.92;;;;;;;;;;5035239;28;20512;-76
2023/03/05 05:58:10;;;;;;;2.20;2.10;;;;;;;;;;5051600;28;20035;-78
2023/03/05 06:00:39;;;;;;;1.90;1.77;;;;;;;;;;5051459;28;20057;-73
2023/03/05 06:03:05;;;;;;;1.92;1.77;;;;;;;;;;5050934;28;20412;-75
2023/03/05 06:05:31;;;;;;;2.08;1.98;;;;;;;;;;5034629;28;20043;-77
2023/03/05 06:07:57;;;;;;;2.60;2.40;;;;;;;;;;5040467;28;20041;-78
2023/03/05 06:10:26;;;;;;;2.33;2.22;;;;;;;;;;5058784;28;20040;-78
2023/03/05 06:12:52;;;;;;;2.47;2.35;;;;;;;;;;5066111;28;20036;-81
2023/03/05 06:15:18;;;;;;;3.28;1.92;;;;;;;;;;5067420;28;20033;-79
2023/03/05 06:17:46;;;;;;;2.00;1.90;;;;;;;;;;5036415;28;20127;-80
2023/03/05 06:20:34;;;;;;;2.25;2.03;;;;;;;;;;5030128;28;20435;-79
2023/03/05 06:23:03;;;;;;;3.22;2.03;;;;;;;;;;5035221;28;20029;-79
2023/03/05 06:25:29;;;;;;;2.17;2.08;;;;;;;;;;5047394;28;20060;-79
2023/03/05 06:27:55;;;;;;;2.15;2.05;;;;;;;;;;5048912;28;20033;-79
2023/03/05 06:30:22;;;;;;;2.47;2.28;;;;;;;;;;5051853;28;20120;-77
2023/03/05 06:32:48;;;;;;;2.10;1.83;;;;;;;;;;5067417;28;20074;-77
2023/03/05 06:35:14;;;;;;;2.65;2.45;;;;;;;;;;5044169;28;20028;-78
2023/03/05 06:37:40;;;;;;;3.00;2.80;;;;;;;;;;5062585;28;20514;-77
2023/03/05 06:40:06;;;;;;;2.72;2.53;;;;;;;;;;5037959;28;20417;-78
2023/03/05 06:42:33;;;;;;;3.95;2.42;;;;;;;;;;5054335;28;20037;-77
2023/03/05 06:44:59;;;;;;;2.80;2.60;;;;;;;;;;5072667;28;20132;-75
2023/03/05 06:47:25;;;;;;;2.53;2.33;;;;;;;;;;5067607;28;20547;-77
2023/03/05 06:49:51;;;;;;;2.72;2.53;;;;;;;;;;5051811;28;20029;-76
2023/03/05 06:52:17;;;;;;;2.05;1.95;;;;;;;;;;5052072;28;20068;-77
2023/03/05 06:54:46;;;;;;;2.00;1.67;;;;;;;;;;5051890;28;20320;-77
2023/03/05 06:57:16;;;;;;;2.78;2.58;;;;;;;;;;5052246;28;20041;-76
2023/03/05 06:59:43;;;;;;;;;;;;;;;;;;5023770;28;20032;-76
2023/03/05 07:02:10;;;;;;;3.60;2.70;;;;;;;;;;5052535;28;19920;-77
2023/03/05 07:04:35;;;;;;;2.75;2.55;;;;;;;;;;5035121;28;20040;-76
2023/03/05 07:07:02;;;;;;;4.40;3.72;;;;;;;;;;5035876;28;20044;-76
2023/03/05 07:09:29;;;;;;;6.07;4.07;;;;;;;;;;5034197;28;20040;-74
2023/03/05 07:11:55;;;;;;;5.43;3.53;;;;;;;;;;5051944;28;20119;-75
2023/03/05 07:14:21;;;;;;;3.55;2.70;;;;;;;;;;5033871;28;20062;-76
2023/03/05 07:16:47;;;;;;;3.08;2.80;;;;;;;;;;5062383;28;20040;-77
2023/03/05 07:19:13;;;;;;;4.25;3.72;;;;;;;;;;5070169;28;20107;-76
2023/03/05 07:21:39;;;;;;;3.47;2.90;;;;;;;;;;5070123;28;20044;-77
2023/03/05 07:24:05;;;;;;;4.78;4.03;;;;;;;;;;5070261;28;20040;-78
2023/03/05 07:26:35;;;;;;;2.70;2.50;;;;;;;;;;5053043;28;20040;-77
2023/03/05 07:29:01;;;;;;;6.85;3.53;;;;;;;;;;5071401;28;20041;-78
2023/03/05 07:31:29;;;;;;;3.25;3.05;;;;;;;;;;5062872;28;20525;-78
2023/03/05 07:33:56;;;;;;;12.48;3.67;;;;;;;;;;5030372;28;20037;-78
2023/03/05 07:36:25;;;;;;;3.03;2.83;;;;;;;;;;5013734;28;20039;-78
2023/03/05 07:38:51;;;;;;;3.10;2.90;;;;;;;;;;5030249;28;20069;-78
2023/03/05 07:41:22;;;;;;;5.75;3.15;;;;;;;;;;5031490;28;20068;-78
2023/03/05 07:43:48;;;;;;;2.95;2.63;;;;;;;;;;5031555;28;20116;-78
2023/03/05 07:46:15;;;;;;;3.50;2.67;;;;;;;;;;5030814;28;20041;-77
2023/03/05 07:48:41;;;;;;;2.90;2.60;;;;;;;;;;5029973;28;20033;-77
2023/03/05 07:51:15;;;;;;;3.97;2.67;;;;;;;;;;5014281;28;20037;-75
2023/03/05 07:53:42;;;;;;;2.00;1.90;;;;;;;;;;5030587;28;20044;-76
2023/03/05 07:56:08;;;;;;;2.70;2.38;;;;;;;;;;5030616;28;20130;-75
2023/03/05 07:58:35;;;;;;;2.60;2.42;;;;;;;;;;5027410;28;20521;-75
2023/03/05 08:01:01;;;;;;;3.00;2.42;;;;;;;;;;5029278;28;20029;-74
2023/03/05 08:03:27;;;;;;;2.97;2.78;;;;;;;;;;5029048;28;20037;-73
2023/03/05 08:05:53;;;;;;;2.38;2.28;;;;;;;;;;5029995;28;20049;-74
2023/03/05 08:08:19;;;;;;;3.20;2.47;;;;;;;;;;5025901;28;20526;-74
2023/03/05 08:10:45;;;;;;;2.13;2.03;;;;;;;;;;5010568;28;20034;-75
2023/03/05 08:13:11;;;;;;;2.35;2.15;;;;;;;;;;5009881;28;20042;-75
2023/03/05 08:15:37;;;;;;;5.45;2.20;;;;;;;;;;5009388;28;20485;-75
2023/03/05 08:18:03;;;;;;;1.98;1.85;;;;;;;;;;5010889;28;20837;-77
2023/03/05 08:20:29;;;;;;;6.00;2.15;;;;;;;;;;5009475;28;20691;-76
2023/03/05 08:22:55;;;;;;;2.90;2.70;;;;;;;;;;5011064;28;20719;-76
2023/03/05 08:25:21;;;;;;;3.85;2.30;;;;;;;;;;5010653;28;20038;-77
2023/03/05 08:27:47;;;;;;;3.08;2.10;;;;;;;;;;5010622;28;20045;-76
2023/03/05 08:30:14;;;;;;;2.80;2.60;;;;;;;;;;5008029;28;20033;-78
2023/03/05 08:32:41;;;;;;;2.67;2.47;;;;;;;;;;5057604;28;20056;-77
2023/03/05 08:35:08;;;;;;;2.28;2.10;;;;;;;;;;5052345;28;20550;-77
2023/03/05 08:37:34;;;;;;;5.47;2.25;;;;;;;;;;5069771;28;20119;-74
2023/03/05 08:40:00;;;;;;;2.47;2.35;;;;;;;;;;5051925;28;20758;-77
2023/03/05 08:42:26;;;;;;;2.58;2.17;;;;;;;;;;5051924;28;20040;-79
2023/03/05 08:44:52;;;;;;;1.48;1.48;;;;;;;;;;5052672;28;20040;-75
2023/03/05 08:47:19;;;;;;;3.60;2.47;;;;;;;;;;5052101;28;20044;-77
2023/03/05 08:49:45;;;;;;;3.10;2.80;;;;;;;;;;5069676;28;20031;-77
2023/03/05 08:52:11;;;;;;;3.95;3.15;;;;;;;;;;5035539;28;20040;-79
2023/03/05 08:54:37;;;;;;;1.80;1.70;;;;;;;;;;5051524;28;20094;-75
2023/03/05 08:57:03;;;;;;;5.20;3.50;;;;;;;;;;5070002;28;20472;-75
2023/03/05 08:59:29;;;;;;;2.97;2.78;;;;;;;;;;5066038;28;20067;-76
2023/03/05 09:01:59;;;;;;;3.47;3.25;;;;;;;;;;5069322;28;20455;-76
2023/03/05 09:04:25;;;;;;;4.28;2.20;;;;;;;;;;5069642;28;20040;-75
2023/03/05 09:06:51;;;;;;;2.78;2.58;;;;;;;;;;5051208;28;20056;-75
2023/03/05 09:09:20;;;;;;;4.40;2.92;;;;;;;;;;5069521;28;20124;-77
2023/03/05 09:11:46;;;;;;;2.95;2.75;;;;;;;;;;5018328;28;20028;-77
2023/03/05 09:14:12;;;;;;;4.07;3.78;;;;;;;;;;5069705;28;20119;-77
2023/03/05 09:16:39;;;;;;;4.93;3.10;;;;;;;;;;5069323;28;20085;-76
2023/03/05 09:19:07;;;;;;;3.90;3.50;;;;;;;;;;5069571;28;20040;-75
2023/03/05 09:21:33;;;;;;;3.38;3.08;;;;;;;;;;5051644;28;20457;-76
2023/03/05 09:23:59;;;;;;;4.03;3.63;;;;;;;;;;5069694;28;20122;-77
2023/03/05 09:26:25;;;;;;;3.85;3.55;;;;;;;;;;5051583;28;20427;-78
2023/03/05 09:28:51;;;;;;;5.55;2.90;;;;;;;;;;5069936;28;20178;-77
2023/03/05 09:31:18;;;;;;;3.45;3.15;;;;;;;;;;5069212;28;20663;-76
2023/03/05 09:33:44;;;;;;;4.05;3.67;;;;;;;;;;5051306;28;20052;-80
2023/03/05 09:36:15;;;;;;;4.50;4.20;;;;;;;;;;5050067;28;20532;-77
2023/03/05 09:38:41;;;;;;;3.10;2.90;;;;;;;;;;5050957;28;20641;-76
2023/03/05 09:41:20;;;;;;;3.70;3.03;;;;;;;;;;5050939;28;20538;-75
2023/03/05 09:44:04;;;;;;;4.00;3.63;;;;;;;;;;5030868;28;20029;-75
2023/03/05 09:46:34;;;;;;;4.80;4.40;;;;;;;;;;5060424;28;20516;-76
2023/03/05 09:49:03;;;;;;;2.72;2.60;;;;;;;;;;5070391;28;20040;-76
2023/03/05 09:51:30;;;;;;;6.18;4.57;;;;;;;;;;5068683;28;20032;-76
2023/03/05 09:53:59;;;;;;;5.13;4.72;;;;;;;;;;5034581;28;20029;-77
2023/03/05 09:56:35;;;;;;;3.58;3.38;;;;;;;;;;5035173;28;20689;-76
2023/03/05 09:59:12;;;;;;;4.50;4.10;;;;;;;;;;5068958;28;20033;-75
2023/03/05 10:01:41;;;;;;;5.57;5.18;;;;;;;;;;5048717;28;20031;-75
2023/03/05 10:04:12;;;;;;;7.43;6.72;;;;;;;;;;5026797;28;20632;-78
2023/03/05 10:06:41;;;;;;;3.67;3.47;;;;;;;;;;5033444;28;20571;-74
2023/03/05 10:09:09;;;;;;;5.95;5.25;;;;;;;;;;5068600;28;20032;-75
2023/03/05 10:11:40;;;;;;;1.92;1.83;;;;;;;;;;5067951;28;20051;-74
2023/03/05 10:14:06;;;;;;;4.60;4.27;;;;;;;;;;5068755;28;20544;-74
2023/03/05 10:16:50;;;;;;;4.32;4.03;;;;;;;;;;5068401;28;20086;-75
2023/03/05 10:19:20;;;;;;;5.20;4.80;;;;;;;;;;5051266;28;20127;-78
2023/03/05 10:21:49;;;;;;;5.07;4.55;;;;;;;;;;5050851;28;20500;-77
2023/03/05 10:24:28;;;;;;;4.25;3.95;;;;;;;;;;5051571;28;20052;-78
2023/03/05 10:26:57;;;;;;;6.03;4.78;;;;;;;;;;5051028;28;20045;-76
2023/03/05 10:29:43;;;;;;;4.20;3.83;;;;;;;;;;5033798;28;20087;-75
2023/03/05 10:32:15;;;;;;;6.72;3.95;;;;;;;;;;5026857;28;20132;-76
2023/03/05 10:34:48;;;;;;;6.85;6.25;;;;;;;;;;5068338;28;20413;-75
2023/03/05 10:37:14;;;;;;;5.70;4.60;;;;;;;;;;5033830;28;20025;-75
2023/03/05 10:39:59;;;;;;;5.13;4.72;;;;;;;;;;5068317;28;20075;-76
2023/03/05 10:42:30;;;;;;;4.75;4.43;;;;;;;;;;5068396;28;20032;-75
2023/03/05 10:44:59;;;;;;;4.90;4.50;;;;;;;;;;5050923;28;20037;-77
2023/03/05 10:47:28;;;;;;;7.03;4.15;;;;;;;;;;5068693;28;20075;-76
2023/03/05 10:49:55;;;;;;;3.83;3.63;;;;;;;;;;5068667;28;20116;-76
2023/03/05 10:52:21;;;;;;;4.32;4.03;;;;;;;;;;5051826;28;20565;-75
2023/03/05 10:54:48;;;;;;;3.65;3.40;;;;;;;;;;5069017;28;20096;-76
2023/03/05 10:57:21;;;;;;;5.47;5.07;;;;;;;;;;5077272;28;20450;-74
2023/03/05 10:59:50;;;;;;;5.50;5.10;;;;;;;;;;5077107;28;20904;-76
2023/03/05 11:02:16;;;;;;;7.50;5.70;;;;;;;;;;5042444;28;20142;-75
2023/03/05 11:04:43;;;;;;;5.55;5.15;;;;;;;;;;5079746;28;20036;-75
2023/03/05 11:07:15;;;;;;;5.68;4.97;;;;;;;;;;5061000;28;20044;-74
2023/03/05 11:09:41;;;;;;;5.07;4.57;;;;;;;;;;5069391;28;20040;-77
2023/03/05 11:12:10;;;;;;;4.13;3.83;;;;;;;;;;5068655;28;20110;-74
2023/03/05 11:14:37;;;;;;;4.15;3.85;;;;;;;;;;5066574;28;20411;-77
2023/03/05 11:17:21;;;;;;;4.97;4.55;;;;;;;;;;5067686;28;20361;-74
2023/03/05 11:19:47;;;;;;;5.22;4.93;;;;;;;;;;5050459;28;20029;-75
2023/03/05 11:22:20;;;;;;;6.40;5.68;;;;;;;;;;5070556;28;20069;-76
2023/03/05 11:25:02;;;;;;;5.95;5.35;;;;;;;;;;5072125;28;20082;-76
2023/03/05 11:27:35;;;;;;;4.35;4.07;;;;;;;;;;5037771;28;20484;-75
2023/03/05 11:30:02;;;;;;;6.55;5.90;;;;;;;;;;5071795;28;20142;-75
2023/03/05 11:32:30;;;;;;;4.95;4.53;;;;;;;;;;5071115;28;20049;-77
2023/03/05 11:34:57;;;;;;;5.13;4.72;;;;;;;;;;5071231;28;20032;-74
2023/03/05 11:37:24;;;;;;;4.50;4.15;;;;;;;;;;5071332;28;20040;-74
2023/03/05 11:40:04;;;;;;;7.15;4.50;;;;;;;;;;5069158;28;20570;-75
2023/03/05 11:42:30;;;;;;;4.43;4.03;;;;;;;;;;5053739;28;20468;-77
2023/03/05 11:44:56;;;;;;;4.22;3.92;;;;;;;;;;5053069;28;20040;-75
2023/03/05 11:47:27;;;;;;;5.05;4.63;;;;;;;;;;5071375;28;20055;-78
2023/03/05 11:49:54;;;;;;;6.22;5.72;;;;;;;;;;5036123;28;20044;-78
2023/03/05 11:52:21;;;;;;;4.55;4.25;;;;;;;;;;5053300;28;20037;-75
2023/03/05 11:54:57;;;;;;;7.70;7.00;;;;;;;;;;5070778;28;20059;-73
2023/03/05 11:57:22;;;;;;;5.80;5.40;;;;;;;;;;5068805;28;20064;-77
2023/03/05 11:59:50;;;;;;;5.80;5.40;;;;;;;;;;5067647;28;20036;-80
2023/03/05 12:02:20;;;;;;;7.30;6.60;;;;;;;;;;5052510;28;20491;-79
2023/03/05 12:04:46;;;;;;;6.22;5.78;;;;;;;;;;5071037;28;20135;-80
2023/03/05 12:07:12;;;;;;;6.85;6.30;;;;;;;;;;5053475;28;20044;-81
2023/03/05 12:09:39;;;;;;;8.50;6.57;;;;;;;;;;5053417;28;20035;-81
2023/03/05 12:12:17;;;;;;;6.60;4.70;;;;;;;;;;5052623;28;20033;-78
2023/03/05 12:14:50;;;;;;;6.68;6.07;;;;;;;;;;5052839;28;20036;-80
2023/03/05 12:17:21;;;;;;;4.82;4.43;;;;;;;;;;5079264;28;20040;-81
2023/03/05 12:19:59;;;;;;;4.37;4.17;;;;;;;;;;5059679;28;20039;-82
2023/03/05 12:22:26;;;;;;;8.45;7.88;;;;;;;;;;5078045;28;20025;-78
2023/03/05 12:24:52;;;;;;;5.57;5.18;;;;;;;;;;5064645;28;20025;-82
2023/03/05 12:27:31;;;;;;;4.55;4.22;;;;;;;;;;5070625;28;20170;-80
2023/03/05 12:30:00;;;;;;;6.22;5.82;;;;;;;;;;5054321;28;20048;-81
2023/03/05 12:32:34;;;;;;;6.20;5.57;;;;;;;;;;5008868;28;20052;-81
2023/03/05 14:46:27;;;;;;;7.05;6.35;;;;;;;;;;5078973;28;20056;-78
2023/03/05 14:48:53;;;;;;;4.55;4.25;;;;;;;;;;5067188;28;20038;-77
2023/03/05 14:51:19;;;;;;;7.25;6.55;;;;;;;;;;5068147;28;20047;-78
2023/03/05 14:53:45;;;;;;;6.35;5.63;;;;;;;;;;5082825;28;20366;-81
2023/03/05 14:56:22;;;;;;;6.82;6.10;;;;;;;;;;5063615;28;20120;-81
2023/03/05 14:58:48;;;;;;;4.03;3.70;;;;;;;;;;5083655;28;20044;-77
2023/03/05 15:01:14;;;;;;;3.63;3.42;;;;;;;;;;5082320;28;20644;-79
2023/03/05 15:03:40;;;;;;;4.40;4.10;;;;;;;;;;5045532;28;20173;-78
2023/03/05 15:06:07;;;;;;;3.80;3.50;;;;;;;;;;5075709;28;20036;-80
2023/03/05 15:08:33;;;;;;;3.50;3.30;;;;;;;;;;5088608;28;20537;-80
2023/03/05 15:10:59;;;;;;;3.65;3.40;;;;;;;;;;5086119;28;20028;-75
2023/03/05 15:13:25;;;;;;;3.85;3.65;;;;;;;;;;5038702;28;20032;-79
2023/03/05 15:15:57;;;;;;;5.50;5.00;;;;;;;;;;5072548;28;20042;-79
2023/03/05 15:18:23;;;;;;;3.58;3.28;;;;;;;;;;5058691;28;20129;-77
2023/03/05 15:20:51;;;;;;;7.10;6.40;;;;;;;;;;5084580;28;20032;-77
2023/03/05 15:23:18;;;;;;;4.90;4.50;;;;;;;;;;5064508;28;20088;-78
2023/03/05 15:25:44;;;;;;;3.50;3.20;;;;;;;;;;5083271;28;20028;-76
2023/03/05 15:28:10;;;;;;;3.03;2.83;;;;;;;;;;5064146;28;20058;-74
2023/03/05 15:30:37;;;;;;;3.25;3.00;;;;;;;;;;5035986;28;20020;-75
2023/03/05 15:33:05;;;;;;;3.47;3.15;;;;;;;;;;5065251;28;20036;-76
2023/03/05 15:35:31;;;;;;;2.78;2.63;;;;;;;;;;5067311;28;20032;-77
2023/03/05 15:37:57;;;;;;;3.25;3.05;;;;;;;;;;5063506;28;20040;-78
2023/03/05 15:40:23;;;;;;;4.07;3.78;;;;;;;;;;5049956;28;20811;-75
2023/03/05 15:42:50;;;;;;;5.53;5.05;;;;;;;;;;5052172;28;20037;-74
2023/03/05 15:45:16;;;;;;;5.40;4.97;;;;;;;;;;5067044;28;20077;-77
2023/03/05 15:47:42;;;;;;;9.82;4.85;;;;;;;;;;5047221;28;20049;-74
2023/03/05 15:50:09;;;;;;;4.78;4.38;;;;;;;;;;5050589;28;20038;-75
2023/03/05 15:52:37;;;;;;;5.70;5.25;;;;;;;;;;5051197;28;20063;-75
2023/03/05 15:55:03;;;;;;;4.85;4.45;;;;;;;;;;5068347;28;20032;-75
2023/03/05 15:57:30;;;;;;;5.78;5.18;;;;;;;;;;5068365;28;20032;-75
2023/03/05 15:59:59;;;;;;;4.05;3.75;;;;;;;;;;5057698;28;20036;-76
2023/03/05 16:02:29;;;;;;;3.80;3.42;;;;;;;;;;5050114;28;20027;-77
2023/03/05 16:04:57;;;;;;;4.43;4.10;;;;;;;;;;5050813;28;20143;-76
2023/03/05 16:07:23;;;;;;;4.70;4.30;;;;;;;;;;5050134;28;20036;-76
2023/03/05 16:09:49;;;;;;;4.32;3.92;;;;;;;;;;5046803;28;20515;-78
2023/03/05 16:12:17;;;;;;;2.72;2.63;;;;;;;;;;5049570;28;21469;-76
2023/03/05 16:14:43;;;;;;;3.45;3.25;;;;;;;;;;5065356;28;20051;-76
2023/03/05 16:17:09;;;;;;;4.00;3.78;;;;;;;;;;5060471;28;20032;-81
2023/03/05 16:19:35;;;;;;;3.08;2.90;;;;;;;;;;5016991;28;20029;-79
2023/03/05 16:22:02;;;;;;;3.78;3.42;;;;;;;;;;5046383;28;20036;-78
2023/03/05 16:24:28;;;;;;;5.65;3.70;;;;;;;;;;5063878;28;20029;-79
2023/03/05 16:26:54;;;;;;;4.50;4.18;;;;;;;;;;5064722;28;20037;-80
2023/03/05 16:29:20;;;;;;;3.25;3.00;;;;;;;;;;5042675;28;20032;-80
2023/03/05 16:31:49;;;;;;;3.40;3.20;;;;;;;;;;5047936;28;20417;-78
2023/03/05 16:34:15;;;;;;;4.20;3.90;;;;;;;;;;5067933;28;20059;-80
2023/03/05 16:36:47;;;;;;;3.38;3.08;;;;;;;;;;5056534;28;20038;-80
2023/03/05 16:39:13;;;;;;;4.53;4.13;;;;;;;;;;5057313;28;20037;-78
2023/03/05 16:41:39;;;;;;;3.15;2.97;;;;;;;;;;5048868;28;20131;-76
2023/03/05 16:44:06;;;;;;;5.47;4.72;;;;;;;;;;5067712;28;20123;-77
2023/03/05 16:46:32;;;;;;;5.00;4.28;;;;;;;;;;5080798;28;20048;-78
2023/03/05 16:48:58;;;;;;;4.72;4.43;;;;;;;;;;5065640;28;20464;-77
2023/03/05 16:51:25;;;;;;;4.25;2.80;;;;;;;;;;5059381;28;20056;-76
2023/03/05 16:53:51;;;;;;;5.78;5.28;;;;;;;;;;5062277;28;20032;-78
2023/03/05 16:56:17;;;;;;;4.65;4.25;;;;;;;;;;5067853;28;20033;-77